Wabush, Canada
Current Conditions -  °F | °C
As of 8:00 PM on Friday 24 Oct 2014 (Local Time) from CYWK Reporting Station
Few Clouds Few Clouds  
Wind Chill: 36°   Ceiling: Unl
Heat Index: 36°   Visibility: 15mi
Dew Point: 28°   Wind: 2mph
Humidity: 75%   Direction: 60°ENE
Pressure: 29.88"   Gusts: NA
Location:  52.9°N, 66.87°W
Report Text: CYWK 242300Z 06002KT 15SM FEW120 FEW250 02/M02 A2988 RMK AC1CI1 SLP150
Loading
Personal Weather Stations






























Interactive Weather Map
Tropical Storm Tracking
New forecast layout! Learn more

10-Day Weather Forecast

Advertisements
Track Severe Weather on mobile